Time;durP1;ratioP1;P1;durP2;ratioP2;P2;SDS_P1;SDS_P2;PMS_P1;PMS_P2;Temp;Humidity;BMP_temperature;BMP_pressure;BME280_temperature;BME280_humidity;BME280_pressure;Samples;Min_cycle;Max_cycle;Signal;HPM_P1;HPM_P2
2022/09/22 00:02:15;;;;;;;2.90;2.25;;;;;;;8.57;82.68;101951.44;7396069;19;20014;-67
2022/09/22 00:04:44;;;;;;;3.85;2.20;;;;;;;8.56;82.60;101952.28;7394087;19;20019;-67
2022/09/22 00:07:12;;;;;;;3.15;2.47;;;;;;;8.55;82.74;101953.16;7393516;19;20392;-67
2022/09/22 00:09:40;;;;;;;3.30;2.50;;;;;;;8.53;82.67;101949.66;7395863;19;20078;-68
2022/09/22 00:12:09;;;;;;;4.75;2.30;;;;;;;8.53;82.91;101952.28;7396003;19;20032;-68
2022/09/22 00:14:40;;;;;;;4.68;2.63;;;;;;;8.52;82.97;101945.28;7393152;19;20031;-67
2022/09/22 00:17:10;;;;;;;3.75;2.38;;;;;;;8.50;83.02;101949.63;7396211;19;20023;-68
2022/09/22 00:19:39;;;;;;;2.70;2.20;;;;;;;8.51;83.09;101945.28;7395508;19;20014;-68
2022/09/22 00:22:08;;;;;;;2.42;2.15;;;;;;;8.51;83.05;101951.38;7395900;19;20039;-67
2022/09/22 00:25:01;;;;;;;3.56;2.54;;;;;;;8.50;83.39;101954.00;7183764;19;22277665;-68
2022/09/22 00:27:30;;;;;;;3.65;2.40;;;;;;;8.50;83.39;101956.63;7395360;19;20435;-68
2022/09/22 00:30:01;;;;;;;4.47;2.20;;;;;;;8.49;83.52;101953.09;7393823;19;20094;-71
2022/09/22 00:32:29;;;;;;;2.53;2.20;;;;;;;8.50;83.57;101951.38;7395515;19;20027;-70
2022/09/22 00:34:58;;;;;;;5.07;2.88;;;;;;;8.49;83.62;101953.09;7395859;19;20026;-69
2022/09/22 00:37:26;;;;;;;3.38;2.83;;;;;;;8.48;83.52;101946.16;7397315;19;20054;-69
2022/09/22 00:39:55;;;;;;;2.75;2.55;;;;;;;8.48;83.58;101957.47;7397268;19;20019;-70
2022/09/22 00:42:24;;;;;;;3.65;3.03;;;;;;;8.46;83.47;101953.09;7397245;19;20027;-69
2022/09/22 00:44:54;;;;;;;2.92;2.40;;;;;;;8.46;83.56;101958.34;7396683;19;20035;-68
2022/09/22 00:47:36;;;;;;;4.00;2.70;;;;;;;8.45;83.55;101951.31;7396976;19;20014;-69
2022/09/22 00:50:10;;;;;;;3.58;2.80;;;;;;;8.43;83.67;101947.84;7396915;19;20104;-68
2022/09/22 00:52:45;;;;;;;3.35;3.05;;;;;;;8.40;83.59;101942.56;7396519;19;20477;-69
2022/09/22 00:55:17;;;;;;;3.35;2.50;;;;;;;8.40;83.70;101947.78;7396423;19;20019;-68
2022/09/22 00:57:48;;;;;;;3.30;2.70;;;;;;;8.37;83.71;101948.66;7397147;19;20058;-68
2022/09/22 01:00:17;;;;;;;5.75;2.70;;;;;;;8.35;83.85;101947.75;7396958;19;20031;-70
2022/09/22 01:02:52;;;;;;;3.55;2.20;;;;;;;8.32;83.74;101950.34;7396461;19;20035;-71
2022/09/22 01:05:23;;;;;;;2.92;2.38;;;;;;;8.29;84.01;101951.22;7396172;19;20014;-69
2022/09/22 01:07:53;;;;;;;2.92;2.58;;;;;;;8.26;83.89;101948.56;7396806;19;20022;-70
2022/09/22 01:10:22;;;;;;;7.80;2.35;;;;;;;8.22;83.89;101941.56;7395885;19;20018;-69
2022/09/22 01:13:03;;;;;;;3.47;2.60;;;;;;;8.19;84.03;101941.56;7396777;19;20011;-67
2022/09/22 01:15:39;;;;;;;2.90;2.50;;;;;;;8.13;84.12;101939.75;7396601;19;20081;-68
2022/09/22 01:18:22;;;;;;;3.03;2.10;;;;;;;8.10;84.17;101937.13;7394150;19;20018;-68
2022/09/22 01:21:15;;;;;;;4.95;2.20;;;;;;;8.07;84.20;101937.09;7394811;19;20014;-68
2022/09/22 01:24:25;;;;;;;4.95;2.30;;;;;;;8.02;84.12;101930.09;7394564;19;20018;-68
2022/09/22 01:27:33;;;;;;;3.92;2.92;;;;;;;7.93;84.34;101934.38;7394481;19;20027;-68
2022/09/22 01:30:35;;;;;;;7.30;2.10;;;;;;;7.87;84.17;101938.69;7392669;19;20402;-68
2022/09/22 01:33:31;;;;;;;3.38;2.40;;;;;;;7.80;84.29;101933.41;7395731;19;20018;-69
2022/09/22 01:36:10;;;;;;;3.70;2.33;;;;;;;7.75;84.32;101931.63;7395283;19;20501;-68
2022/09/22 01:38:44;;;;;;;4.38;2.90;;;;;;;7.70;84.60;101931.56;7395220;19;20012;-68
2022/09/22 01:41:19;;;;;;;2.67;2.15;;;;;;;7.63;84.62;101925.41;7393265;19;20029;-68
2022/09/22 01:43:53;;;;;;;4.28;2.58;;;;;;;7.58;84.47;101928.84;7394916;19;20022;-68
2022/09/22 01:46:28;;;;;;;4.28;2.78;;;;;;;7.51;84.62;101922.69;7394980;19;20014;-68
2022/09/22 01:49:01;;;;;;;3.28;2.67;;;;;;;7.44;84.70;101916.53;7395747;19;20031;-68
2022/09/22 01:51:32;;;;;;;2.75;2.45;;;;;;;7.39;84.73;101923.41;7394582;19;20015;-68
2022/09/22 01:54:06;;;;;;;4.10;2.67;;;;;;;7.33;84.74;101924.25;7394313;19;20037;-68
2022/09/22 01:56:38;;;;;;;2.60;2.40;;;;;;;7.29;84.70;101930.31;7394907;19;20014;-68
2022/09/22 01:59:08;;;;;;;5.72;2.47;;;;;;;7.21;84.74;101918.88;7395969;19;20022;-69
2022/09/22 02:01:44;;;;;;;5.18;2.63;;;;;;;7.17;84.86;101922.31;7393482;19;20025;-69
2022/09/22 02:04:20;;;;;;;3.05;2.70;;;;;;;7.10;85.13;101916.19;7393142;19;20023;-69
2022/09/22 02:06:54;;;;;;;9.13;2.50;;;;;;;7.04;85.28;101916.09;7395200;19;20022;-70
2022/09/22 02:09:25;;;;;;;;;;;;;;;6.99;85.36;101909.94;7394084;19;20027;-70
2022/09/22 02:11:54;;;;;;;3.42;2.50;;;;;;;6.93;85.15;101913.34;7392789;19;19937;-69
2022/09/22 02:14:22;;;;;;;19.92;10.60;;;;;;;6.89;85.24;101916.78;7392877;19;20074;-69
2022/09/22 02:16:53;;;;;;;11.00;7.22;;;;;;;6.83;85.36;101912.34;7394384;19;20018;-69
2022/09/22 02:19:26;;;;;;;5.95;3.60;;;;;;;6.80;85.39;101916.69;7394636;19;20022;-69
2022/09/22 02:21:55;;;;;;;3.47;3.17;;;;;;;6.76;85.38;101926.19;7392541;19;20485;-70
2022/09/22 02:24:29;;;;;;;6.47;3.17;;;;;;;6.72;85.57;101929.59;7393358;19;20022;-70
2022/09/22 02:26:58;;;;;;;4.68;3.10;;;;;;;6.69;85.57;101929.56;7392616;19;20031;-69
2022/09/22 02:29:31;;;;;;;4.10;3.42;;;;;;;6.66;85.64;101927.78;7394679;19;20032;-69
2022/09/22 02:32:07;;;;;;;3.58;3.10;;;;;;;6.63;85.60;101930.34;7393784;19;20465;-69
2022/09/22 02:34:35;;;;;;;3.10;2.80;;;;;;;6.60;85.68;101929.44;7391861;19;20503;-69
2022/09/22 02:37:11;;;;;;;4.40;3.25;;;;;;;6.57;85.68;101926.78;7393426;19;20022;-69
2022/09/22 02:39:43;;;;;;;5.78;3.10;;;;;;;6.54;86.04;101930.22;7394108;19;20035;-69
2022/09/22 02:42:29;;;;;;;3.95;3.33;;;;;;;6.50;85.87;101923.22;7393269;19;20335;-69
2022/09/22 02:45:03;;;;;;;3.55;3.10;;;;;;;6.46;85.89;101924.03;7391510;19;20015;-69
2022/09/22 02:47:40;;;;;;;6.18;4.25;;;;;;;6.44;86.02;101923.13;7392937;19;20376;-69
2022/09/22 02:50:13;;;;;;;5.90;4.30;;;;;;;6.40;86.13;101924.81;7393571;19;20426;-68
2022/09/22 02:52:42;;;;;;;3.72;2.92;;;;;;;6.36;86.16;101926.50;7393874;19;20018;-69
2022/09/22 02:55:12;;;;;;;7.10;4.30;;;;;;;6.33;86.23;101925.56;7399886;19;20407;-69
2022/09/22 02:57:40;;;;;;;7.90;4.97;;;;;;;6.30;86.39;101918.59;7400131;19;20439;-68
2022/09/22 03:00:10;;;;;;;5.07;3.30;;;;;;;6.27;86.58;101915.94;7399980;19;20426;-69
2022/09/22 03:02:41;;;;;;;5.78;3.47;;;;;;;6.25;86.59;101916.78;7400271;19;20031;-68
2022/09/22 03:05:10;;;;;;;6.07;3.60;;;;;;;6.25;86.69;101916.78;7397679;19;20018;-69
2022/09/22 03:07:38;;;;;;;4.68;3.17;;;;;;;6.22;86.70;101921.94;7397776;19;20022;-68
2022/09/22 03:10:09;;;;;;;5.82;3.58;;;;;;;6.18;86.77;101915.81;7400237;19;20350;-68
2022/09/22 03:12:41;;;;;;;7.32;3.78;;;;;;;6.16;86.68;101922.72;7398030;19;20015;-68
2022/09/22 03:15:11;;;;;;;3.72;3.20;;;;;;;6.09;86.84;101911.34;7397533;19;20033;-68
2022/09/22 03:17:43;;;;;;;4.75;3.35;;;;;;;6.12;86.77;101918.34;7397969;19;20015;-68
2022/09/22 03:20:14;;;;;;;4.28;3.38;;;;;;;6.10;87.12;101918.28;7400301;19;20015;-69
2022/09/22 03:22:42;;;;;;;3.95;3.30;;;;;;;6.09;87.12;101918.25;7399912;19;20018;-69
2022/09/22 03:25:12;;;;;;;7.68;3.47;;;;;;;6.06;87.31;101916.50;7398896;19;20028;-68
2022/09/22 03:27:41;;;;;;;4.72;3.63;;;;;;;6.07;87.41;101923.47;7400132;19;20035;-68
2022/09/22 03:30:11;;;;;;;4.78;3.42;;;;;;;6.07;87.37;101925.19;7399471;19;20041;-68
2022/09/22 03:32:43;;;;;;;4.63;3.42;;;;;;;6.05;87.48;101929.50;7397167;19;20022;-68
2022/09/22 03:35:11;;;;;;;3.38;3.08;;;;;;;6.02;87.57;101927.72;7399189;19;20420;-69
2022/09/22 03:37:40;;;;;;;5.18;3.25;;;;;;;6.01;87.54;101923.34;7398672;19;20027;-70
2022/09/22 03:40:09;;;;;;;4.15;3.60;;;;;;;5.97;87.39;101922.38;7398805;19;20032;-69
2022/09/22 03:42:38;;;;;;;7.28;6.03;;;;;;;5.97;87.67;101925.00;7399470;19;20098;-68
2022/09/22 03:45:07;;;;;;;4.68;3.88;;;;;;;5.95;87.73;101926.72;7396061;19;20477;-69
2022/09/22 03:47:36;;;;;;;5.45;3.03;;;;;;;5.93;87.71;101925.81;7398079;19;20010;-68
2022/09/22 03:50:08;;;;;;;4.63;3.65;;;;;;;5.92;87.66;101928.41;7398604;19;20043;-69
2022/09/22 03:52:38;;;;;;;4.68;3.33;;;;;;;5.85;87.54;101920.47;7397689;19;20050;-67
2022/09/22 03:55:09;;;;;;;5.60;4.45;;;;;;;5.87;87.63;101920.50;7395963;19;20014;-68
2022/09/22 03:57:37;;;;;;;4.97;3.80;;;;;;;5.83;87.80;101924.78;7398357;19;20027;-69
2022/09/22 04:00:07;;;;;;;6.63;4.22;;;;;;;5.80;87.85;101929.03;7397905;19;20488;-68
2022/09/22 04:02:36;;;;;;;5.15;3.70;;;;;;;5.77;87.73;101918.59;7397957;19;20018;-68
2022/09/22 04:05:08;;;;;;;6.07;4.35;;;;;;;5.74;87.68;101914.22;7393446;19;20128;-69
2022/09/22 04:07:36;;;;;;;6.95;4.40;;;;;;;5.72;87.93;101908.09;7398726;19;20019;-69
2022/09/22 04:10:06;;;;;;;4.88;3.25;;;;;;;5.70;87.75;101918.47;7397978;19;20022;-67
2022/09/22 04:12:36;;;;;;;5.13;3.22;;;;;;;5.68;87.87;101920.16;7396602;19;20381;-69
2022/09/22 04:15:05;;;;;;;5.18;3.33;;;;;;;5.64;87.70;101920.97;7395566;19;20015;-68
2022/09/22 04:17:33;;;;;;;4.43;3.47;;;;;;;5.61;87.96;101923.53;7397980;19;20032;-68
2022/09/22 04:20:02;;;;;;;6.18;4.10;;;;;;;5.58;87.80;101918.25;7395062;19;20407;-69
2022/09/22 04:22:33;;;;;;;4.72;3.83;;;;;;;5.55;88.01;101916.47;7397379;19;20343;-69
2022/09/22 04:25:01;;;;;;;6.85;4.38;;;;;;;5.54;88.07;101916.47;7394944;19;20090;-69
2022/09/22 04:27:30;;;;;;;4.50;3.72;;;;;;;5.52;87.94;101912.94;7395092;19;20031;-69
2022/09/22 04:29:59;;;;;;;4.95;3.10;;;;;;;5.50;87.86;101919.88;7396508;19;20482;-68
2022/09/22 04:32:28;;;;;;;5.95;3.42;;;;;;;5.47;87.88;101920.69;7395862;19;20389;-70
2022/09/22 04:34:56;;;;;;;6.68;3.47;;;;;;;5.45;87.94;101924.13;7394498;19;20019;-69
2022/09/22 04:37:25;;;;;;;3.63;2.88;;;;;;;5.42;87.95;101924.03;7396337;19;20557;-69
2022/09/22 04:39:56;;;;;;;5.47;3.63;;;;;;;5.39;88.14;101919.66;7396271;19;20036;-69
2022/09/22 04:42:25;;;;;;;7.20;3.55;;;;;;;5.36;87.98;101909.19;7397116;19;20017;-69
2022/09/22 04:44:55;;;;;;;6.50;3.65;;;;;;;5.33;87.97;101915.22;7395129;19;20023;-69
2022/09/22 04:47:24;;;;;;;9.05;4.03;;;;;;;5.31;88.06;101914.31;7396779;19;20023;-69
2022/09/22 04:49:52;;;;;;;11.23;4.32;;;;;;;5.30;88.02;101920.34;7394901;19;20032;-69
2022/09/22 04:52:21;;;;;;;8.75;4.35;;;;;;;5.27;87.78;101925.53;7394963;19;20435;-69
2022/09/22 04:54:49;;;;;;;5.47;3.80;;;;;;;5.24;87.91;101927.19;7394189;19;20014;-68
2022/09/22 04:57:20;;;;;;;6.97;3.97;;;;;;;5.21;87.74;101928.00;7396036;19;20018;-69
2022/09/22 04:59:49;;;;;;;6.13;4.35;;;;;;;5.18;87.95;101926.22;7395478;19;20047;-69
2022/09/22 05:02:24;;;;;;;19.92;3.40;;;;;;;5.15;87.92;101925.28;7396004;19;20027;-68
2022/09/22 05:04:53;;;;;;;6.93;3.78;;;;;;;5.13;87.70;101929.56;7394103;19;20346;-70
2022/09/22 05:07:21;;;;;;;5.15;3.20;;;;;;;5.10;87.72;101925.16;7394482;19;20083;-67
2022/09/22 05:09:50;;;;;;;5.32;3.35;;;;;;;5.08;87.56;101926.88;7394628;19;20151;-69
2022/09/22 05:12:21;;;;;;;5.93;4.35;;;;;;;5.05;87.73;101937.22;7395553;19;20112;-70
2022/09/22 05:14:50;;;;;;;6.53;3.97;;;;;;;5.03;87.66;101933.69;7392796;19;20028;-69
2022/09/22 05:17:18;;;;;;;3.63;3.33;;;;;;;5.01;87.70;101936.28;7393407;19;20018;-68
2022/09/22 05:19:47;;;;;;;5.95;4.22;;;;;;;4.97;87.76;101931.84;7394263;19;20023;-69
2022/09/22 05:22:16;;;;;;;5.63;4.35;;;;;;;4.97;87.70;101937.06;7394553;19;20015;-69
2022/09/22 05:24:46;;;;;;;10.75;4.15;;;;;;;4.96;87.69;101940.50;7392980;19;20018;-69
2022/09/22 05:27:21;;;;;;;5.15;4.18;;;;;;;4.95;87.58;101936.13;7393315;19;20499;-69
2022/09/22 05:29:52;;;;;;;7.80;4.43;;;;;;;4.94;87.91;101939.63;7395449;19;20014;-69
2022/09/22 05:32:20;;;;;;;7.82;4.13;;;;;;;4.88;87.83;101929.06;7393408;19;20022;-70
2022/09/22 05:34:49;;;;;;;7.88;4.32;;;;;;;4.94;87.80;101936.13;7393655;19;20019;-68
2022/09/22 05:37:17;;;;;;;4.57;3.67;;;;;;;4.93;87.77;101932.66;7393154;19;20018;-69
2022/09/22 05:39:46;;;;;;;7.70;4.00;;;;;;;4.94;87.88;101936.13;7394970;19;20022;-69
2022/09/22 05:42:14;;;;;;;6.82;4.15;;;;;;;4.94;88.09;101946.53;7394965;19;20046;-69
2022/09/22 05:44:43;;;;;;;5.20;4.63;;;;;;;4.94;88.13;101944.81;7393729;19;20047;-69
2022/09/22 05:47:14;;;;;;;4.53;4.07;;;;;;;4.95;88.13;101946.53;7394850;19;20520;-69
2022/09/22 05:49:42;;;;;;;6.90;4.57;;;;;;;4.95;88.20;101945.69;7393516;19;20015;-69
2022/09/22 05:52:11;;;;;;;6.55;5.95;;;;;;;4.96;88.38;101937.91;7394431;19;20084;-69
2022/09/22 05:54:39;;;;;;;20.70;13.85;;;;;;;4.99;88.23;101945.78;7393423;19;20406;-69
2022/09/22 05:57:08;;;;;;;147.82;80.57;;;;;;;5.00;88.44;101944.91;7394853;19;20035;-69
2022/09/22 05:59:36;;;;;;;26.50;18.25;;;;;;;5.03;88.50;101950.19;7395463;19;20027;-69
2022/09/22 06:02:07;;;;;;;11.77;9.77;;;;;;;5.05;88.68;101951.13;7394129;19;20509;-69
2022/09/22 06:04:38;;;;;;;11.20;8.77;;;;;;;5.06;88.87;101950.25;7393367;19;20037;-69
2022/09/22 06:07:07;;;;;;;9.68;8.77;;;;;;;5.10;88.67;101955.53;7394875;19;20056;-69
2022/09/22 06:09:35;;;;;;;10.65;8.18;;;;;;;5.12;88.81;101948.63;7393710;19;20384;-70
2022/09/22 06:12:07;;;;;;;9.70;7.28;;;;;;;5.15;88.88;101946.09;7393396;19;20501;-70
2022/09/22 06:14:35;;;;;;;7.18;6.07;;;;;;;5.17;89.10;101954.81;7392888;19;20018;-70
2022/09/22 06:17:04;;;;;;;8.38;5.93;;;;;;;5.22;88.99;101945.38;7394244;19;20039;-68
2022/09/22 06:19:33;;;;;;;7.20;5.82;;;;;;;5.26;89.23;101948.88;7393977;19;20038;-68
2022/09/22 06:22:04;;;;;;;8.50;5.25;;;;;;;5.29;89.67;101948.97;7393601;19;20028;-68
2022/09/22 06:24:33;;;;;;;6.32;5.47;;;;;;;5.33;89.50;101954.28;7392252;19;20055;-69
2022/09/22 06:27:01;;;;;;;7.20;5.80;;;;;;;5.37;89.46;101958.69;7392562;19;20021;-69
2022/09/22 06:29:30;;;;;;;9.25;5.82;;;;;;;5.44;89.62;101957.06;7397777;19;20015;-69
2022/09/22 06:31:58;;;;;;;7.07;5.40;;;;;;;5.49;89.73;101959.75;7400291;19;20025;-69
2022/09/22 06:34:27;;;;;;;6.55;5.40;;;;;;;5.54;89.86;101948.56;7399110;19;20023;-69
2022/09/22 06:36:58;;;;;;;7.50;5.78;;;;;;;5.61;90.13;101951.28;7400778;19;20018;-68
2022/09/22 06:39:29;;;;;;;5.40;4.70;;;;;;;5.66;90.11;101955.75;7400945;19;20031;-69
2022/09/22 06:41:59;;;;;;;8.30;5.60;;;;;;;5.73;90.29;101959.31;7398515;19;20060;-69
2022/09/22 06:44:30;;;;;;;9.88;6.07;;;;;;;5.79;90.32;101955.97;7399015;19;20022;-70
2022/09/22 06:46:59;;;;;;;7.82;6.38;;;;;;;5.87;90.62;101959.56;7401383;19;20033;-70
2022/09/22 06:49:28;;;;;;;8.30;7.50;;;;;;;5.92;90.78;101959.66;7400909;19;20011;-69
2022/09/22 06:51:57;;;;;;;9.95;7.97;;;;;;;5.99;90.63;101957.22;7400442;19;20021;-69
2022/09/22 06:54:26;;;;;;;12.05;7.70;;;;;;;6.08;91.03;101966.00;7397899;19;20021;-69
2022/09/22 06:56:57;;;;;;;11.23;8.45;;;;;;;6.13;91.10;101956.53;7397430;19;20014;-69
2022/09/22 06:59:25;;;;;;;9.13;8.15;;;;;;;6.22;91.15;101967.13;7400771;19;20036;-69
2022/09/22 07:01:54;;;;;;;12.13;8.65;;;;;;;6.30;91.53;101962.91;7400133;19;20028;-69
2022/09/22 07:04:22;;;;;;;11.52;10.05;;;;;;;6.40;91.66;101966.53;7398390;19;20010;-69
2022/09/22 07:06:51;;;;;;;12.30;10.35;;;;;;;6.49;91.78;101960.56;7399845;19;20387;-69
2022/09/22 07:09:20;;;;;;;12.68;10.65;;;;;;;6.59;91.75;101957.25;7397451;19;20015;-69
2022/09/22 07:11:49;;;;;;;13.55;10.48;;;;;;;6.68;91.93;101964.31;7399875;19;20102;-68
2022/09/22 07:14:21;;;;;;;11.50;10.00;;;;;;;6.78;92.43;101954.91;7397434;19;20026;-69
2022/09/22 07:16:51;;;;;;;17.13;11.85;;;;;;;6.89;92.06;101963.75;7399719;19;20015;-69
2022/09/22 07:19:19;;;;;;;12.88;11.13;;;;;;;6.99;92.26;101957.78;7399611;19;20037;-70
2022/09/22 07:21:48;;;;;;;13.02;11.40;;;;;;;7.10;92.78;101957.94;7396748;19;20022;-69
2022/09/22 07:24:16;;;;;;;12.38;11.07;;;;;;;7.20;92.56;101956.28;7397975;19;20018;-68
2022/09/22 07:26:45;;;;;;;14.60;10.85;;;;;;;7.32;92.58;101959.03;7398990;19;20027;-69
2022/09/22 07:29:15;;;;;;;13.40;10.32;;;;;;;7.42;92.83;101953.91;7399109;19;20033;-69
2022/09/22 07:31:46;;;;;;;11.35;9.50;;;;;;;7.53;92.74;101949.66;7396916;19;20014;-69
2022/09/22 07:34:17;;;;;;;11.27;9.52;;;;;;;7.63;92.54;101948.94;7397052;19;20015;-69
2022/09/22 07:36:45;;;;;;;7.97;7.18;;;;;;;7.71;92.48;101948.09;7399210;19;20346;-70
2022/09/22 07:39:14;;;;;;;9.07;7.47;;;;;;;7.80;92.76;101950.81;7396022;19;20492;-69
2022/09/22 07:41:43;;;;;;;9.98;7.45;;;;;;;7.88;92.66;101951.75;7398748;19;20018;-69
2022/09/22 07:46:57;;;;;;;7.78;6.95;;;;;;;8.09;92.69;101948.44;7399007;19;20492;-68
2022/09/22 07:49:25;;;;;;;21.83;12.48;;;;;;;8.20;92.33;101945.03;7396642;19;20074;-68
2022/09/22 07:51:56;;;;;;;12.23;7.38;;;;;;;8.27;92.18;101934.63;7398707;19;20018;-69
2022/09/22 07:54:25;;;;;;;10.07;6.45;;;;;;;8.37;91.89;101946.03;7396661;19;20029;-69
2022/09/22 07:56:54;;;;;;;7.22;5.57;;;;;;;8.46;91.65;101946.13;7398577;19;20027;-68
2022/09/22 07:59:23;;;;;;;7.07;5.25;;;;;;;8.56;91.41;101946.19;7398346;19;20019;-69
2022/09/22 08:01:52;;;;;;;4.65;3.90;;;;;;;8.64;91.32;101952.31;7398377;19;20031;-69
2022/09/22 08:04:25;;;;;;;5.43;4.35;;;;;;;8.73;91.13;101951.50;7396992;19;20014;-68
2022/09/22 08:06:55;;;;;;;9.18;4.85;;;;;;;8.80;90.91;101954.16;7396373;19;20015;-69
2022/09/22 08:09:27;;;;;;;4.97;4.20;;;;;;;8.87;90.73;101943.72;7398365;19;20029;-70
2022/09/22 08:11:55;;;;;;;5.53;3.20;;;;;;;8.93;90.54;101944.66;7397700;19;20085;-68
2022/09/22 08:14:24;;;;;;;4.75;3.40;;;;;;;9.02;90.26;101942.91;7395431;19;20481;-68
2022/09/22 08:16:54;;;;;;;4.53;3.15;;;;;;;9.10;89.91;101949.06;7397827;19;20022;-69
2022/09/22 08:19:25;;;;;;;7.82;3.72;;;;;;;9.18;89.66;101951.72;7397265;19;20018;-69
2022/09/22 08:21:55;;;;;;;5.95;3.20;;;;;;;9.25;89.45;101953.47;7397571;19;20031;-68
2022/09/22 08:24:24;;;;;;;3.63;2.97;;;;;;;9.34;89.17;101952.63;7395147;19;20347;-68
2022/09/22 08:26:54;;;;;;;3.65;3.08;;;;;;;9.43;88.84;101950.91;7395531;19;20402;-68
2022/09/22 08:29:23;;;;;;;4.65;3.22;;;;;;;9.51;88.54;101947.44;7395527;19;20023;-69
2022/09/22 08:31:52;;;;;;;3.95;2.42;;;;;;;9.59;88.35;101950.94;7397185;19;20018;-69
2022/09/22 08:34:21;;;;;;;6.82;2.85;;;;;;;9.64;88.01;101953.56;7395558;19;20029;-69
2022/09/22 08:36:52;;;;;;;4.00;2.60;;;;;;;9.71;87.99;101942.22;7396758;19;20023;-69
2022/09/22 08:39:21;;;;;;;4.05;2.75;;;;;;;9.78;87.68;101944.84;7395564;19;20023;-69
2022/09/22 08:42:12;;;;;;;2.90;2.20;;;;;;;9.84;87.13;101949.22;7395260;19;20019;-69
2022/09/22 08:44:50;;;;;;;2.35;1.75;;;;;;;9.92;86.89;101952.72;7396267;19;20039;-69
2022/09/22 08:51:50;;;;;;;3.05;1.98;;;;;;;10.01;86.42;101953.59;7397061;19;20020;-71
2022/09/22 08:53:10;;;;;;;2.05;1.30;;;;;;;10.22;84.99;101957.94;7396283;19;20030;-69
2022/09/22 08:55:43;;;;;;;3.58;1.30;;;;;;;10.30;84.73;101956.22;7395772;19;20037;-70
2022/09/22 08:58:27;;;;;;;2.30;1.47;;;;;;;10.40;84.44;101949.22;7399118;19;20350;-68
2022/09/22 09:01:03;;;;;;;2.80;1.23;;;;;;;10.46;83.92;101951.81;7396296;19;20018;-68
2022/09/22 09:03:46;;;;;;;1.85;1.10;;;;;;;10.57;83.38;101955.31;7395002;19;20025;-68
2022/09/22 09:06:17;;;;;;;3.15;0.82;;;;;;;10.67;82.48;101950.06;7395846;19;20031;-67
2022/09/22 09:09:13;;;;;;;1.52;0.88;;;;;;;10.79;81.38;101950.00;7395779;19;20029;-68
2022/09/22 09:12:06;;;;;;;1.35;1.05;;;;;;;10.98;80.94;101945.56;7395544;19;20493;-69
2022/09/22 09:14:57;;;;;;;1.92;1.20;;;;;;;11.17;80.56;101955.97;7394343;19;20038;-69
2022/09/22 09:17:30;;;;;;;2.13;0.80;;;;;;;11.31;79.38;101948.91;7395776;19;20035;-68
2022/09/22 09:20:03;;;;;;;1.70;0.93;;;;;;;11.46;78.92;101949.69;7397750;19;20035;-68
2022/09/22 09:22:39;;;;;;;1.37;0.90;;;;;;;11.59;77.19;101951.38;7393732;19;20015;-68
2022/09/22 09:25:21;;;;;;;1.88;0.77;;;;;;;11.71;76.44;101943.41;7393562;19;20442;-68
2022/09/22 09:27:56;;;;;;;1.02;0.82;;;;;;;11.81;75.78;101944.19;7393576;19;20014;-69
2022/09/22 09:30:25;;;;;;;1.50;0.80;;;;;;;11.92;75.25;101945.84;7393859;19;20022;-67
2022/09/22 09:32:58;;;;;;;2.08;0.57;;;;;;;11.99;74.00;101937.06;7394686;19;20090;-66
2022/09/22 09:35:37;;;;;;;2.15;0.85;;;;;;;12.04;71.84;101941.41;7395274;19;20103;-67
2022/09/22 09:38:13;;;;;;;2.15;0.80;;;;;;;12.09;72.14;101933.47;7393132;19;20018;-68
2022/09/22 09:40:53;;;;;;;1.63;0.60;;;;;;;12.17;71.32;101936.91;7392974;19;20040;-67
2022/09/22 09:43:24;;;;;;;1.05;0.70;;;;;;;12.25;70.42;101931.56;7393252;19;20014;-68
2022/09/22 09:46:04;;;;;;;0.80;0.60;;;;;;;12.35;69.54;101927.97;7392312;19;20018;-68
2022/09/22 09:48:39;;;;;;;0.80;0.40;;;;;;;12.43;67.93;101925.25;7392923;19;20026;-67
2022/09/22 09:51:12;;;;;;;1.45;0.35;;;;;;;12.57;68.50;101934.75;7393698;19;20018;-67
2022/09/22 09:53:44;;;;;;;2.35;0.70;;;;;;;12.68;66.78;101931.09;7392567;19;20022;-68
2022/09/22 09:56:25;;;;;;;1.27;0.60;;;;;;;12.80;64.92;101927.47;7395955;19;20029;-69
2022/09/22 10:01:43;;;;;;;1.20;0.80;;;;;;;13.04;64.35;101935.94;7394753;19;20437;-67
2022/09/22 10:04:20;;;;;;;1.13;0.50;;;;;;;13.18;63.13;101934.00;7400681;19;20560;-67
2022/09/22 10:06:50;;;;;;;0.98;0.52;;;;;;;13.29;64.30;101925.06;7402759;19;20018;-67
2022/09/22 10:09:30;;;;;;;1.20;0.60;;;;;;;13.43;63.79;101928.41;7399460;19;20048;-67
2022/09/22 10:12:05;;;;;;;0.57;0.40;;;;;;;13.56;62.89;101933.50;7402027;19;20461;-67
2022/09/22 10:14:36;;;;;;;1.02;0.55;;;;;;;13.66;62.50;101927.19;7400464;19;20014;-67
2022/09/22 10:17:04;;;;;;;1.15;0.52;;;;;;;13.74;61.95;101930.59;7401962;19;20485;-68
2022/09/22 10:19:34;;;;;;;1.27;0.50;;;;;;;13.85;60.96;101933.91;7398728;19;20019;-67
2022/09/22 10:22:27;;;;;;;2.88;0.40;;;;;;;13.98;59.02;101931.94;7399138;19;20023;-69
2022/09/22 10:24:58;;;;;;;1.70;0.50;;;;;;;14.08;59.20;101930.03;7398437;19;20010;-68
2022/09/22 10:27:45;;;;;;;0.88;0.50;;;;;;;14.11;58.65;101910.63;7398156;19;20010;-68
2022/09/22 10:30:22;;;;;;;1.15;0.60;;;;;;;14.17;60.18;101911.38;7399061;19;20082;-67
2022/09/22 10:33:16;;;;;;;0.95;0.80;;;;;;;14.20;59.39;101917.50;7401380;19;20014;-67
2022/09/22 10:35:47;;;;;;;0.50;0.40;;;;;;;14.22;58.70;101921.00;7400793;19;20021;-68
2022/09/22 10:38:25;;;;;;;1.05;0.55;;;;;;;14.23;56.67;101920.06;7401719;19;20508;-67
2022/09/22 10:40:59;;;;;;;2.45;0.47;;;;;;;14.23;55.80;101925.34;7400748;19;20017;-67
2022/09/22 10:43:42;;;;;;;1.55;0.68;;;;;;;14.23;55.70;101920.97;7398771;19;20018;-68
2022/09/22 10:46:39;;;;;;;20.48;12.25;;;;;;;14.26;56.07;101917.41;7401208;19;20014;-68
2022/09/22 10:49:14;;;;;;;2.10;1.55;;;;;;;14.25;54.41;101926.22;7396042;19;20468;-69
2022/09/22 10:51:57;;;;;;;1.95;0.80;;;;;;;14.26;56.50;101914.75;7401770;19;20106;-68
2022/09/22 10:54:48;;;;;;;1.17;0.50;;;;;;;14.27;55.35;101921.78;7397563;19;20019;-68
2022/09/22 10:57:28;;;;;;;0.93;0.68;;;;;;;14.32;56.47;101914.66;7401209;19;20018;-68
2022/09/22 11:00:12;;;;;;;0.98;0.52;;;;;;;14.35;52.81;101919.84;7397401;19;20011;-67
2022/09/22 11:03:12;;;;;;;1.05;0.50;;;;;;;14.43;53.64;101911.78;7397979;19;20022;-67
2022/09/22 11:14:34;;;;;;;2.13;0.40;;;;;;;14.47;49.72;101903.78;7397153;19;20085;-68
2022/09/22 11:17:28;;;;;;;1.67;0.45;;;;;;;14.47;49.33;101911.72;7397239;19;20015;-68
2022/09/22 11:20:24;;;;;;;0.77;0.40;;;;;;;14.47;50.74;101903.78;7396628;19;20023;-68
2022/09/22 11:23:08;;;;;;;0.80;0.45;;;;;;;14.48;51.48;101902.00;7395711;19;20018;-68
2022/09/22 11:25:53;;;;;;;1.03;0.47;;;;;;;14.44;52.16;101893.25;7398402;19;20018;-67
2022/09/22 11:28:36;;;;;;;0.73;0.50;;;;;;;14.44;52.71;101898.53;7395703;19;20007;-67
2022/09/22 11:31:06;;;;;;;1.58;0.50;;;;;;;14.46;53.53;101901.19;7397524;19;20115;-68
2022/09/22 11:34:08;;;;;;;0.73;0.50;;;;;;;14.46;53.20;101893.25;7397769;19;20027;-69
2022/09/22 11:36:50;;;;;;;3.15;0.60;;;;;;;14.47;51.58;101884.44;7396791;19;20049;-68
2022/09/22 11:39:22;;;;;;;1.60;0.30;;;;;;;14.45;53.29;101873.88;7398502;19;20011;-68
2022/09/22 11:42:01;;;;;;;1.67;0.80;;;;;;;14.50;51.92;101885.22;7399333;19;20019;-68
2022/09/22 11:44:37;;;;;;;1.27;0.50;;;;;;;14.54;52.98;101877.25;7396629;19;20018;-68
2022/09/22 11:47:29;;;;;;;0.57;0.38;;;;;;;14.58;51.79;101876.28;7397263;19;20488;-68
2022/09/22 11:50:26;;;;;;;0.60;0.60;;;;;;;14.58;52.36;101877.16;7396462;19;20513;-68
2022/09/22 11:53:22;;;;;;;0.85;0.45;;;;;;;14.59;52.46;101872.75;7397047;19;20055;-68
2022/09/22 11:56:05;;;;;;;0.52;0.40;;;;;;;14.63;50.11;101871.78;7396643;19;20490;-69
2022/09/22 11:58:35;;;;;;;0.75;0.30;;;;;;;14.64;52.29;101869.13;7398258;19;20037;-68
2022/09/22 12:01:09;;;;;;;1.50;0.30;;;;;;;14.62;51.24;101867.41;7404604;19;20031;-68
2022/09/22 12:03:43;;;;;;;2.22;0.60;;;;;;;14.58;51.97;101858.66;7397891;19;20015;-67
2022/09/22 12:06:16;;;;;;;1.00;0.47;;;;;;;14.55;52.31;101857.88;7397610;19;20078;-69
2022/09/22 12:08:52;;;;;;;1.60;0.50;;;;;;;14.56;51.99;101860.47;7395825;19;20077;-67
2022/09/22 12:11:23;;;;;;;1.40;0.52;;;;;;;14.57;51.95;101851.66;7396482;19;20429;-68
2022/09/22 12:13:52;;;;;;;1.80;0.52;;;;;;;14.58;52.15;101847.25;7396322;19;20098;-68
2022/09/22 12:16:24;;;;;;;0.88;0.70;;;;;;;14.60;51.98;101850.72;7397401;19;20015;-68